createdAt,value
2022-09-03T00:00:08.068Z,100361.84
2022-09-03T00:05:16.440Z,100360.09
2022-09-03T00:10:22.548Z,100355.78
2022-09-03T00:15:25.306Z,100348.19
2022-09-03T00:20:31.269Z,100350.78
2022-09-03T00:25:39.186Z,100332.66
2022-09-03T00:30:43.335Z,100333.81
2022-09-03T00:35:48.610Z,100331.69
2022-09-03T00:41:03.313Z,100330.41
2022-09-03T00:46:13.651Z,100314.31
2022-09-03T00:51:25.863Z,100321.38
2022-09-03T00:56:34.689Z,100318.13
2022-09-03T01:01:45.972Z,100316.59
2022-09-03T01:06:58.772Z,100322.00
2022-09-03T01:12:06.817Z,100322.97
2022-09-03T01:17:17.455Z,100316.25
2022-09-03T01:22:48.582Z,100319.78
2022-09-03T01:28:02.997Z,100322.47
2022-09-03T01:33:14.998Z,100319.06
2022-09-03T01:38:25.358Z,100336.50
2022-09-03T01:43:45.275Z,100332.88
2022-09-03T01:48:53.983Z,100341.22
2022-09-03T01:54:21.561Z,100344.81
2022-09-03T01:59:29.821Z,100339.97
2022-09-03T02:04:31.761Z,100339.16
2022-09-03T02:09:32.743Z,100329.09
2022-09-03T02:14:36.216Z,100319.75
2022-09-03T02:19:38.031Z,100328.53
2022-09-03T02:24:38.660Z,100324.41
2022-09-03T02:29:40.636Z,100322.81
2022-09-03T02:34:41.525Z,100328.88
2022-09-03T02:39:42.405Z,100333.19
2022-09-03T02:44:49.357Z,100331.59
2022-09-03T02:49:50.496Z,100333.31
2022-09-03T02:54:51.327Z,100332.59
2022-09-03T02:59:53.294Z,100332.63
2022-09-03T03:04:55.111Z,100330.13
2022-09-03T03:09:55.754Z,100328.47
2022-09-03T03:14:57.726Z,100330.22
2022-09-03T03:19:58.370Z,100321.72
2022-09-03T03:24:58.984Z,100312.41
2022-09-03T03:30:00.965Z,100319.31
2022-09-03T03:35:01.612Z,100324.22
2022-09-03T03:40:02.330Z,100327.69
2022-09-03T03:45:05.255Z,100329.50
2022-09-03T03:50:07.018Z,100336.31
2022-09-03T03:55:08.414Z,100326.22
2022-09-03T04:00:11.489Z,100327.09
2022-09-03T04:05:19.187Z,100328.09
2022-09-03T04:10:23.941Z,100313.56
2022-09-03T04:15:25.929Z,100317.91
2022-09-03T04:20:26.647Z,100317.91
2022-09-03T04:25:27.383Z,100316.22
2022-09-03T04:30:29.387Z,100315.34
2022-09-03T04:35:31.770Z,100312.84
2022-09-03T04:40:32.453Z,100310.19
2022-09-03T04:45:34.479Z,100311.88
2022-09-03T04:50:35.673Z,100321.38
2022-09-03T04:55:37.041Z,100318.72
2022-09-03T05:00:39.933Z,100327.19
2022-09-03T05:05:40.599Z,100326.28
2022-09-03T05:10:41.196Z,100336.59
2022-09-03T05:15:45.426Z,100332.22
2022-09-03T05:20:46.038Z,100321.94
2022-09-03T05:25:56.432Z,100328.66
2022-09-03T05:31:02.271Z,100325.09
2022-09-03T05:36:04.379Z,100319.13
2022-09-03T05:41:07.680Z,100322.44
2022-09-03T05:46:12.244Z,100330.94
2022-09-03T05:51:16.359Z,100327.44
2022-09-03T05:56:19.073Z,100326.44
2022-09-03T06:01:22.525Z,100328.84
2022-09-03T06:06:25.744Z,100329.31
2022-09-03T06:11:28.121Z,100337.72
2022-09-03T06:16:32.139Z,100333.13
2022-09-03T06:21:33.074Z,100326.78
2022-09-03T06:26:33.788Z,100336.88
2022-09-03T06:31:38.334Z,100340.78
2022-09-03T06:36:39.063Z,100344.78
2022-09-03T06:41:40.222Z,100341.09
2022-09-03T06:46:43.459Z,100340.09
2022-09-03T06:51:44.325Z,100339.00
2022-09-03T06:56:44.942Z,100335.00
2022-09-03T07:01:48.643Z,100345.69
2022-09-03T07:06:49.484Z,100336.06
2022-09-03T07:11:50.127Z,100339.09
2022-09-03T07:16:52.070Z,100334.56
2022-09-03T07:21:52.656Z,100328.56
2022-09-03T07:26:53.295Z,100321.28
2022-09-03T07:31:55.289Z,100322.56
2022-09-03T07:36:56.247Z,100313.34
2022-09-03T07:41:58.236Z,100304.69
2022-09-03T07:47:00.823Z,100297.69
2022-09-03T07:52:03.023Z,100291.94
2022-09-03T07:57:03.712Z,100296.13
2022-09-03T08:02:06.049Z,100298.88
2022-09-03T08:07:06.769Z,100299.91
2022-09-03T08:12:07.825Z,100303.09
2022-09-03T08:17:09.798Z,100295.31
2022-09-03T08:22:10.883Z,100290.63
2022-09-03T08:27:11.497Z,100287.88
2022-09-03T08:32:14.314Z,100284.41
2022-09-03T08:37:14.968Z,100285.22
2022-09-03T08:42:29.834Z,100287.81
2022-09-03T08:47:38.179Z,100275.25
2022-09-03T08:52:49.007Z,100283.31
2022-09-03T08:57:51.859Z,100282.94
2022-09-03T09:03:06.738Z,100275.44
2022-09-03T09:08:20.186Z,100264.38
2022-09-03T09:13:27.686Z,100258.53
2022-09-03T09:18:46.672Z,100267.63
2022-09-03T09:23:49.356Z,100252.53
2022-09-03T09:28:57.176Z,100244.75
2022-09-03T09:34:05.034Z,100239.31
2022-09-03T09:39:10.468Z,100246.28
2022-09-03T09:44:20.719Z,100242.94
2022-09-03T09:49:32.806Z,100237.16
2022-09-03T09:54:33.522Z,100235.94
2022-09-03T09:59:37.926Z,100233.19
2022-09-03T10:04:40.511Z,100233.13
2022-09-03T10:09:41.148Z,100227.91
2022-09-03T10:14:47.672Z,100223.91
2022-09-03T10:20:19.300Z,100218.31
2022-09-03T10:25:22.295Z,100211.81
2022-09-03T10:30:23.999Z,100205.69
2022-09-03T10:35:30.483Z,100209.50
2022-09-03T10:40:38.704Z,100205.97
2022-09-03T10:45:45.408Z,100191.56
2022-09-03T10:50:53.749Z,100190.47
2022-09-03T10:56:02.436Z,100192.28
2022-09-03T11:01:09.111Z,100186.19
2022-09-03T11:06:14.462Z,100183.28
2022-09-03T11:11:21.714Z,100186.84
2022-09-03T11:16:27.255Z,100180.34
2022-09-03T11:21:32.504Z,100161.69
2022-09-03T11:26:35.274Z,100178.59
2022-09-03T11:31:48.091Z,100163.59
2022-09-03T11:36:50.116Z,100163.09
2022-09-03T11:42:02.278Z,100169.03
2022-09-03T11:47:02.915Z,100164.66
2022-09-03T11:52:08.014Z,100166.97
2022-09-03T11:57:13.827Z,100166.06
2022-09-03T12:02:27.290Z,100154.59
2022-09-03T12:08:01.035Z,100152.69
2022-09-03T12:13:28.390Z,100142.38
2022-09-03T12:18:32.234Z,100142.66
2022-09-03T12:23:36.267Z,100142.41
2022-09-03T12:28:38.700Z,100146.06
2022-09-03T12:33:45.335Z,100147.16
2022-09-03T12:39:10.431Z,100138.31
2022-09-03T12:44:11.933Z,100142.19
2022-09-03T12:49:31.713Z,100129.22
2022-09-03T12:54:34.701Z,100118.47
2022-09-03T12:59:39.327Z,100130.75
2022-09-03T13:04:41.234Z,100126.47
2022-09-03T13:09:43.740Z,100121.88
2022-09-03T13:14:47.264Z,100120.28
2022-09-03T13:20:16.019Z,100115.44
2022-09-03T13:25:28.092Z,100109.00
2022-09-03T13:30:38.060Z,100099.72
2022-09-03T13:35:45.964Z,100100.63
2022-09-03T13:40:52.961Z,100085.47
2022-09-03T13:45:58.343Z,100095.66
2022-09-03T13:51:12.486Z,100089.69
2022-09-03T13:56:28.146Z,100089.91
2022-09-03T14:01:54.538Z,100086.22
2022-09-03T14:07:03.848Z,100087.84
2022-09-03T14:12:14.669Z,100084.09
2022-09-03T14:17:20.439Z,100082.72
2022-09-03T14:22:25.922Z,100078.50
2022-09-03T14:27:30.609Z,100082.25
2022-09-03T14:32:41.337Z,100086.31
2022-09-03T14:38:22.654Z,100084.06
2022-09-03T14:43:42.485Z,100080.75
2022-09-03T14:49:04.809Z,100088.75
2022-09-03T14:54:21.406Z,100094.56
2022-09-03T14:59:39.385Z,100085.19
2022-09-03T15:04:52.809Z,100085.22
2022-09-03T15:10:03.088Z,100084.16
2022-09-03T15:15:14.205Z,100079.44
2022-09-03T15:20:23.767Z,100077.38
2022-09-03T15:25:40.209Z,100084.06
2022-09-03T15:30:51.237Z,100074.00
2022-09-03T15:36:07.607Z,100070.34
2022-09-03T15:41:14.022Z,100076.00
2022-09-03T15:46:38.294Z,100079.13
2022-09-03T15:51:50.037Z,100080.38
2022-09-03T15:56:56.800Z,100083.13
2022-09-03T16:02:04.879Z,100084.50
2022-09-03T16:07:16.874Z,100094.09
2022-09-03T16:12:28.517Z,100099.53
2022-09-03T16:17:36.296Z,100092.63
2022-09-03T16:22:44.978Z,100087.38
2022-09-03T16:27:57.293Z,100084.53
2022-09-03T16:33:10.191Z,100074.19
2022-09-03T16:38:28.365Z,100079.53
2022-09-03T16:43:42.018Z,100087.88
2022-09-03T16:48:54.689Z,100093.75
2022-09-03T16:54:18.270Z,100086.19
2022-09-03T16:59:40.640Z,100075.50
2022-09-03T17:05:10.635Z,100072.44
2022-09-03T17:10:22.691Z,100078.22
2022-09-03T17:15:33.920Z,100078.03
2022-09-03T17:20:58.978Z,100074.56
2022-09-03T17:26:07.148Z,100081.06
2022-09-03T17:31:16.124Z,100079.69
2022-09-03T17:36:24.391Z,100082.88
2022-09-03T17:41:37.347Z,100082.38
2022-09-03T17:46:47.462Z,100100.53
2022-09-03T17:51:53.225Z,100096.13
2022-09-03T17:57:01.423Z,100103.38
2022-09-03T18:02:08.914Z,100108.13
2022-09-03T18:07:19.452Z,100106.06
2022-09-03T18:12:30.529Z,100105.31
2022-09-03T18:17:36.048Z,100118.28
2022-09-03T18:23:03.847Z,100126.50
2022-09-03T18:28:26.195Z,100138.78
2022-09-03T18:33:45.760Z,100138.47
2022-09-03T18:39:05.177Z,100140.91
2022-09-03T18:44:33.436Z,100143.94
2022-09-03T18:49:59.241Z,100152.75
2022-09-03T18:55:29.509Z,100154.81
2022-09-03T19:00:53.570Z,100154.47
2022-09-03T19:06:24.067Z,100163.44
2022-09-03T19:11:52.348Z,100173.50
2022-09-03T19:17:22.954Z,100167.13
2022-09-03T19:22:47.994Z,100168.56
2022-09-03T19:28:21.685Z,100163.88
2022-09-03T19:33:48.603Z,100171.91
2022-09-03T19:39:23.003Z,100167.06
2022-09-03T19:44:58.507Z,100180.28
2022-09-03T19:50:31.517Z,100180.53
2022-09-03T19:55:53.926Z,100183.00
2022-09-03T20:01:13.617Z,100185.72
2022-09-03T20:06:33.480Z,100185.84
2022-09-03T20:11:34.192Z,100198.13
2022-09-03T20:16:45.498Z,100202.59
2022-09-03T20:21:51.027Z,100207.16
2022-09-03T20:26:58.134Z,100207.06
2022-09-03T20:32:09.059Z,100207.28
2022-09-03T20:37:24.556Z,100217.13
2022-09-03T20:42:40.029Z,100218.81
2022-09-03T20:48:10.902Z,100220.16
2022-09-03T20:53:25.776Z,100225.00
2022-09-03T20:58:38.087Z,100226.81
2022-09-03T21:03:49.114Z,100221.03
2022-09-03T21:09:02.435Z,100219.25
2022-09-03T21:14:14.678Z,100225.41
2022-09-03T21:19:23.172Z,100212.53
2022-09-03T21:24:31.276Z,100220.31
2022-09-03T21:29:38.970Z,100229.13
2022-09-03T21:34:51.879Z,100221.56
2022-09-03T21:39:56.208Z,100232.28
2022-09-03T21:45:01.228Z,100242.56
2022-09-03T21:50:13.096Z,100245.13
2022-09-03T21:55:23.273Z,100247.25
2022-09-03T22:00:32.604Z,100245.69
2022-09-03T22:05:48.954Z,100256.03
2022-09-03T22:11:04.246Z,100246.22
2022-09-03T22:16:13.763Z,100252.28
2022-09-03T22:21:23.454Z,100252.00
2022-09-03T22:26:45.052Z,100255.47
2022-09-03T22:31:58.703Z,100254.00
2022-09-03T22:37:03.606Z,100254.16
2022-09-03T22:42:20.986Z,100257.03
2022-09-03T22:47:33.933Z,100253.78
2022-09-03T22:52:42.981Z,100250.56
2022-09-03T22:57:55.728Z,100249.06
2022-09-03T23:03:03.603Z,100247.75
2022-09-03T23:08:12.217Z,100251.16
2022-09-03T23:13:19.281Z,100257.50
2022-09-03T23:18:26.986Z,100261.97
2022-09-03T23:23:32.541Z,100258.59
2022-09-03T23:28:36.461Z,100253.66
2022-09-03T23:33:37.091Z,100254.50
2022-09-03T23:38:54.073Z,100260.28
2022-09-03T23:44:12.275Z,100260.97
2022-09-03T23:49:42.651Z,100267.53
2022-09-03T23:54:48.896Z,100259.59
